createdAt,value
2022-11-20T00:01:22.175Z,99987.94
2022-11-20T00:06:20.479Z,99968.06
2022-11-20T00:11:22.142Z,99968.84
2022-11-20T00:16:21.917Z,99963.13
2022-11-20T00:21:22.004Z,99955.44
2022-11-20T00:26:20.591Z,99956.59
2022-11-20T00:31:17.768Z,99950.47
2022-11-20T00:36:20.366Z,99949.63
2022-11-20T00:41:17.061Z,99945.25
2022-11-20T00:46:19.049Z,99948.72
2022-11-20T00:51:18.757Z,99951.44
2022-11-20T00:56:17.920Z,99957.13
2022-11-20T01:01:19.631Z,99957.69
2022-11-20T01:06:19.358Z,99955.81
2022-11-20T01:11:21.873Z,99947.25
2022-11-20T01:16:23.972Z,99948.88
2022-11-20T01:21:26.189Z,99946.97
2022-11-20T01:26:25.540Z,99954.19
2022-11-20T01:31:26.194Z,99956.69
2022-11-20T01:36:25.096Z,99953.19
2022-11-20T01:41:41.043Z,99950.44
2022-11-20T01:46:40.596Z,99952.91
2022-11-20T01:51:46.842Z,99933.94
2022-11-20T01:56:46.827Z,99936.78
2022-11-20T02:01:43.488Z,99939.56
2022-11-20T02:06:43.731Z,99931.19
2022-11-20T02:11:40.156Z,99927.75
2022-11-20T02:16:40.322Z,99931.22
2022-11-20T02:21:57.060Z,99935.00
2022-11-20T02:27:12.928Z,99923.69
2022-11-20T02:32:27.743Z,99926.44
2022-11-20T02:37:31.365Z,99909.38
2022-11-20T02:42:27.717Z,99909.56
2022-11-20T02:47:24.138Z,99917.00
2022-11-20T02:52:20.502Z,99906.16
2022-11-20T02:57:17.165Z,99893.38
2022-11-20T03:02:13.593Z,99878.63
2022-11-20T03:07:10.723Z,99887.28
2022-11-20T03:12:07.487Z,99881.59
2022-11-20T03:17:03.881Z,99892.63
2022-11-20T03:22:01.107Z,99891.72
2022-11-20T03:26:57.472Z,99892.25
2022-11-20T03:31:53.868Z,99890.31
2022-11-20T03:36:50.389Z,99890.56
2022-11-20T03:41:46.788Z,99884.59
2022-11-20T03:46:43.234Z,99879.50
2022-11-20T03:51:39.657Z,99877.19
2022-11-20T03:56:38.750Z,99887.47
2022-11-20T04:01:38.339Z,99877.97
2022-11-20T04:06:37.905Z,99874.53
2022-11-20T04:11:37.137Z,99878.78
2022-11-20T04:16:36.388Z,99878.09
2022-11-20T04:21:33.525Z,99887.47
2022-11-20T04:26:31.293Z,99880.06
2022-11-20T04:31:30.875Z,99872.69
2022-11-20T04:36:29.180Z,99875.28
2022-11-20T04:41:28.155Z,99871.63
2022-11-20T04:46:24.521Z,99868.97
2022-11-20T04:51:21.211Z,99877.56
2022-11-20T04:56:17.932Z,99880.13
2022-11-20T05:01:20.144Z,99870.72
2022-11-20T05:06:19.644Z,99882.13
2022-11-20T05:11:18.909Z,99885.66
2022-11-20T05:16:18.427Z,99883.56
2022-11-20T05:21:16.213Z,99882.63
2022-11-20T05:26:18.124Z,99875.53
2022-11-20T05:31:23.379Z,99878.44
2022-11-20T05:36:23.398Z,99867.78
2022-11-20T05:41:21.203Z,99858.25
2022-11-20T05:46:27.823Z,99856.66
2022-11-20T05:51:26.042Z,99858.28
2022-11-20T05:56:22.959Z,99856.38
2022-11-20T06:01:22.531Z,99852.59
2022-11-20T06:06:20.359Z,99859.50
2022-11-20T06:11:17.350Z,99871.94
2022-11-20T06:16:16.149Z,99868.91
2022-11-20T06:21:15.629Z,99856.91
2022-11-20T06:26:16.457Z,99862.03
2022-11-20T06:31:15.398Z,99869.38
2022-11-20T06:36:12.560Z,99865.72
2022-11-20T06:41:13.730Z,99865.84
2022-11-20T06:46:11.903Z,99864.81
2022-11-20T06:51:09.280Z,99858.91
2022-11-20T06:56:06.801Z,99860.50
2022-11-20T07:01:10.092Z,99864.41
2022-11-20T07:06:07.198Z,99883.09
2022-11-20T07:11:06.932Z,99874.16
2022-11-20T07:16:06.242Z,99888.34
2022-11-20T07:21:04.115Z,99894.00
2022-11-20T07:26:05.141Z,99895.38
2022-11-20T07:31:01.947Z,99899.09
2022-11-20T07:36:00.916Z,99898.38
2022-11-20T07:40:58.552Z,99895.84
2022-11-20T07:45:58.662Z,99904.06
2022-11-20T07:50:56.760Z,99895.69
2022-11-20T07:55:53.460Z,99899.56
2022-11-20T08:00:49.959Z,99893.03
2022-11-20T08:05:46.403Z,99889.16
2022-11-20T08:10:42.761Z,99886.09
2022-11-20T08:15:41.044Z,99887.22
2022-11-20T08:20:37.900Z,99884.72
2022-11-20T08:25:38.405Z,99877.97
2022-11-20T08:30:35.632Z,99875.28
2022-11-20T08:35:38.718Z,99869.28
2022-11-20T08:40:35.079Z,99863.84
2022-11-20T08:45:34.691Z,99869.44
2022-11-20T08:50:34.958Z,99864.56
2022-11-20T08:55:31.358Z,99863.75
2022-11-20T09:00:27.808Z,99872.28
2022-11-20T09:05:24.151Z,99871.19
2022-11-20T09:10:24.647Z,99889.47
2022-11-20T09:15:22.272Z,99875.66
2022-11-20T09:20:18.643Z,99885.25
2022-11-20T09:25:15.598Z,99885.41
2022-11-20T09:30:13.531Z,99884.88
2022-11-20T09:35:11.309Z,99873.94
2022-11-20T09:40:21.349Z,99883.25
2022-11-20T09:45:39.328Z,99875.25
2022-11-20T09:51:00.426Z,99865.53
2022-11-20T09:55:57.364Z,99870.47
2022-11-20T10:00:57.360Z,99862.47
2022-11-20T10:05:55.815Z,99848.00
2022-11-20T10:11:12.839Z,99848.69
2022-11-20T10:16:28.608Z,99849.94
2022-11-20T10:21:48.180Z,99847.28
2022-11-20T10:27:10.474Z,99842.00
2022-11-20T10:32:19.551Z,99836.34
2022-11-20T10:37:21.567Z,99827.34
2022-11-20T10:42:31.060Z,99815.41
2022-11-20T10:47:30.916Z,99807.41
2022-11-20T10:52:33.542Z,99801.03
2022-11-20T10:57:43.159Z,99804.84
2022-11-20T11:02:47.509Z,99801.25
2022-11-20T11:07:46.258Z,99798.16
2022-11-20T11:12:46.727Z,99785.06
2022-11-20T11:17:49.043Z,99778.69
2022-11-20T11:22:49.963Z,99772.47
2022-11-20T11:27:50.560Z,99764.53
2022-11-20T11:32:46.959Z,99756.28
2022-11-20T11:37:43.372Z,99762.16
2022-11-20T11:42:53.970Z,99753.75
2022-11-20T11:47:52.684Z,99751.75
2022-11-20T11:53:18.696Z,99747.97
2022-11-20T11:58:40.729Z,99756.53
2022-11-20T12:03:42.777Z,99750.38
2022-11-20T12:08:58.593Z,99754.81
2022-11-20T12:14:02.586Z,99738.78
2022-11-20T12:18:59.216Z,99745.78
2022-11-20T12:24:30.359Z,99733.50
2022-11-20T12:29:32.291Z,99715.00
2022-11-20T12:34:48.433Z,99713.22
2022-11-20T12:39:51.555Z,99718.97
2022-11-20T12:45:10.260Z,99710.25
2022-11-20T12:50:22.500Z,99710.41
2022-11-20T12:55:51.795Z,99705.09
2022-11-20T13:01:06.746Z,99699.69
2022-11-20T13:06:14.564Z,99696.88
2022-11-20T13:11:42.288Z,99695.97
2022-11-20T13:16:47.820Z,99686.66
2022-11-20T13:21:52.828Z,99682.59
2022-11-20T13:26:49.391Z,99680.13
2022-11-20T13:31:48.027Z,99668.59
2022-11-20T13:36:58.808Z,99666.66
2022-11-20T13:42:03.969Z,99659.91
2022-11-20T13:47:00.680Z,99642.28
2022-11-20T13:52:20.188Z,99637.41
2022-11-20T13:57:45.591Z,99624.19
2022-11-20T14:02:43.633Z,99611.50
2022-11-20T14:07:43.486Z,99610.66
2022-11-20T14:12:39.981Z,99601.59
2022-11-20T14:17:37.709Z,99593.72
2022-11-20T14:22:34.188Z,99575.63
2022-11-20T14:27:35.148Z,99572.75
2022-11-20T14:32:32.339Z,99576.97
2022-11-20T14:37:34.418Z,99567.09
2022-11-20T14:42:31.840Z,99563.84
2022-11-20T14:47:32.049Z,99557.88
2022-11-20T14:52:29.223Z,99552.81
2022-11-20T14:57:27.611Z,99540.97
2022-11-20T15:02:24.480Z,99538.06
2022-11-20T15:07:26.823Z,99522.69
2022-11-20T15:12:23.212Z,99505.16
2022-11-20T15:17:19.608Z,99503.97
2022-11-20T15:22:17.187Z,99505.91
2022-11-20T15:27:13.837Z,99505.03
2022-11-20T15:32:13.384Z,99494.13
2022-11-20T15:37:10.225Z,99486.44
2022-11-20T15:42:06.606Z,99479.38
2022-11-20T15:47:03.045Z,99484.44
2022-11-20T15:51:59.525Z,99482.75
2022-11-20T15:56:55.922Z,99488.59
2022-11-20T16:01:52.734Z,99477.44
2022-11-20T16:06:49.270Z,99474.81
2022-11-20T16:11:45.701Z,99462.47
2022-11-20T16:16:44.020Z,99442.47
2022-11-20T16:21:42.431Z,99436.28
2022-11-20T16:26:39.987Z,99430.91
2022-11-20T16:31:36.594Z,99423.28
2022-11-20T16:36:33.921Z,99422.44
2022-11-20T16:41:33.113Z,99412.63
2022-11-20T16:46:31.647Z,99399.78
2022-11-20T16:51:30.513Z,99402.31
2022-11-20T16:56:27.872Z,99392.69
2022-11-20T17:01:26.447Z,99382.38
2022-11-20T17:06:26.576Z,99362.38
2022-11-20T17:11:24.850Z,99366.09
2022-11-20T17:16:23.261Z,99365.91
2022-11-20T17:21:19.736Z,99356.94
2022-11-20T17:26:21.916Z,99351.88
2022-11-20T17:31:18.427Z,99351.09
2022-11-20T17:36:16.344Z,99336.91
2022-11-20T17:41:16.075Z,99333.38
2022-11-20T17:46:16.618Z,99324.59
2022-11-20T17:51:15.859Z,99319.25
2022-11-20T17:56:31.986Z,99326.84
2022-11-20T18:01:28.468Z,99310.38
2022-11-20T18:06:27.640Z,99318.13
2022-11-20T18:11:29.061Z,99306.66
2022-11-20T18:16:28.580Z,99301.97
2022-11-20T18:21:27.227Z,99306.28
2022-11-20T18:26:24.721Z,99305.38
2022-11-20T18:31:21.537Z,99313.94
2022-11-20T18:36:20.760Z,99312.63
2022-11-20T18:41:39.042Z,99308.25
2022-11-20T18:46:35.416Z,99296.53
2022-11-20T18:51:31.784Z,99285.16
2022-11-20T18:56:28.128Z,99264.13
2022-11-20T19:01:24.596Z,99249.69
2022-11-20T19:06:21.135Z,99242.22
2022-11-20T19:11:18.781Z,99225.16
2022-11-20T19:16:20.266Z,99214.69
2022-11-20T19:21:22.899Z,99200.59
2022-11-20T19:26:20.270Z,99186.59
2022-11-20T19:31:24.304Z,99174.66
2022-11-20T19:36:24.242Z,99163.88
2022-11-20T19:41:28.818Z,99168.34
2022-11-20T19:46:26.382Z,99159.19
2022-11-20T19:51:29.746Z,99156.59
2022-11-20T19:56:27.741Z,99140.81
2022-11-20T20:01:30.157Z,99132.06
2022-11-20T20:06:27.934Z,99125.03
2022-11-20T20:11:26.492Z,99114.00
2022-11-20T20:16:24.957Z,99109.03
2022-11-20T20:21:21.385Z,99107.94
2022-11-20T20:26:18.060Z,99093.16
2022-11-20T20:31:18.181Z,99087.00
2022-11-20T20:36:16.469Z,99073.66
2022-11-20T20:41:19.950Z,99064.47
2022-11-20T20:46:16.320Z,99062.78
2022-11-20T20:51:12.720Z,99056.91
2022-11-20T20:56:09.579Z,99054.09
2022-11-20T21:01:10.041Z,99039.91
2022-11-20T21:06:08.506Z,99028.84
2022-11-20T21:11:07.895Z,99030.53
2022-11-20T21:16:04.856Z,99024.34
2022-11-20T21:21:24.376Z,99016.66
2022-11-20T21:26:20.950Z,99004.38
2022-11-20T21:31:21.986Z,99001.25
2022-11-20T21:36:20.855Z,99004.63
2022-11-20T21:41:17.569Z,98996.00
2022-11-20T21:46:16.204Z,98989.78
2022-11-20T21:51:17.841Z,98980.44
2022-11-20T21:56:20.080Z,98980.97
2022-11-20T22:01:28.310Z,98988.94
2022-11-20T22:06:27.113Z,98985.88
2022-11-20T22:11:23.649Z,98987.91
2022-11-20T22:16:20.365Z,98975.75
2022-11-20T22:21:19.096Z,98978.88
2022-11-20T22:26:18.101Z,98984.53
2022-11-20T22:31:15.607Z,98984.44
2022-11-20T22:36:15.009Z,98991.28
2022-11-20T22:41:24.949Z,98997.63
2022-11-20T22:46:21.329Z,99011.81
2022-11-20T22:51:20.251Z,99019.06
2022-11-20T22:56:17.082Z,99016.94
2022-11-20T23:01:30.726Z,99021.16
2022-11-20T23:06:27.931Z,99019.28
2022-11-20T23:11:26.905Z,99024.34
2022-11-20T23:16:24.223Z,99031.19
2022-11-20T23:21:20.866Z,99040.28
2022-11-20T23:26:19.498Z,99042.09
2022-11-20T23:31:17.104Z,99042.09
2022-11-20T23:36:14.336Z,99051.03
2022-11-20T23:41:11.940Z,99045.97
2022-11-20T23:46:12.656Z,99061.50
2022-11-20T23:51:13.586Z,99063.09
2022-11-20T23:56:11.564Z,99064.38
